Wood River, Nebraska
Current Conditions -  °F | °C
As of 4:53 PM on Friday 28 Nov 2014 (Local Time) from KHSI Reporting Station
Clear Clear  
Wind Chill: 63°   Ceiling: Unl
Heat Index: 63°   Visibility: 10mi
Dew Point: 24°   Wind: 0mph
Humidity: 23%   Direction: NA
Pressure: 29.67"   Gusts: NA
Location:  40.82°N, 98.6°W
Report Text: KHSI 282253Z AUTO 00000KT 10SM CLR 17/M04 A2967 RMK AO2 SLP051 T01721044
Loading
Personal Weather Stations






























Interactive Weather Map New forecast layout! Learn more

10-Day Weather Forecast

Advertisements
Track Severe Weather on mobile